Erdem Tokoz

Chefscout - Basaksehir
23 Apr 2028
Sonntag
Verarbeitung

Persönlichkeit

Anpassungsfähigkeit (12) Ehrgeiz (17) Kontroverse (18) Loyalität (3) Druck (18) Professionalität (13) Fairness (15) Temperament (16)

Profil

Trainerstil Demokratisch
Lizenz Kontinentale B
Entschlossenheit 9
Menschenführung 12
Motivation 8
Disziplin 10
Arbeitszufriedenheit
78%
Ermüdung
0%
Rolle Chefscout
Gehalt 14.6K p/W
Vertrag 14.03.2030

Leistung

Verhalten Gut
Trainingseffektivität
28%
Spielerentwicklung
65%
Verletzungsprävention
35%
Taktische Umsetzung
50%

Letzte Ereignisse

Empfahl ein Transferziel jetzt
Empfahl ein Transferziel jetzt
Spieler begutachtet jetzt
Spieler begutachtet jetzt
Spieler begutachtet jetzt
Spieler begutachtet jetzt
Spieler begutachtet jetzt
Spieler begutachtet jetzt

Aktuell beobachtet

223
Spieler Verein Status Fähigkeit Vertrauen Beobachtet Zuletzt beobachtet Letzte Stimme
Ayden Heaven Portsmouth Aktiv 145 / 153 40% 4 22.04.2028 -
Jaidon Anthony Derby County Aktiv 135 / 130 40% 3 22.04.2028 -
Pote Sporting CP Aktiv 161 / 163 40% 4 22.04.2028 -
Rodrigo Zalazar Vitoria Guimaraes Aktiv 160 / 150 40% 3 22.04.2028 -
Xaver Schlager Nottingham Forest Aktiv 156 / 157 40% 1 22.04.2028 -
Riquelme Thompson-Jones Accrington Stanley Aktiv 111 / 121 40% 1 22.04.2028 -
Daniel Banjaqui Benfica Aktiv 126 / 134 40% 1 21.04.2028 -
Tylel Tati Chamois Niortais Aktiv 124 / 133 40% 1 21.04.2028 -
Trey Nyoni Rotherham United Aktiv 142 / 146 40% 2 19.04.2028 -
Geny Sporting CP Aktiv 152 / 157 40% 3 19.04.2028 -
Ethan Galbraith Swansea City Aktiv 136 / 134 40% 1 19.04.2028 -
Adnan Nainggolan KV Oostende Aktiv 108 / 105 40% 1 19.04.2028 -
Jack Hinshelwood Watford Aktiv 145 / 161 40% 1 19.04.2028 -
Jonathan Dubasin Osasuna Aktiv 147 / 147 40% 2 18.04.2028 -
Kang-In Lee Villarreal Aktiv 172 / 151 40% 1 18.04.2028 -
Noa Lang Napoli Aktiv 150 / 151 40% 1 16.04.2028 -
Luka Sučić Andorra Aktiv 141 / 142 40% 1 16.04.2028 -
Semih Kılıçsoy Besiktas Aktiv 126 / 129 40% 1 16.04.2028 -
David Larrubia Málaga Aktiv 134 / 137 40% 1 16.04.2028 -
Carlos Vicente Birmingham Aktiv 142 / 151 40% 6 15.04.2028 -
Marcus Edwards Burnley Aktiv 153 / 148 40% 3 15.04.2028 -
Yann Gboho Toulouse FC Aktiv 147 / 138 40% 1 14.04.2028 -
Morgan Whittaker Bristol Rovers Aktiv 145 / 143 40% 2 09.04.2028 -
Thiago Almada LOSC Lille Aktiv 148 / 143 40% 2 09.04.2028 -
Erick Pulga Bahia Aktiv 133 / 146 40% 1 09.04.2028 -
Omar El Hilali Espanyol Aktiv 162 / 154 40% 2 07.04.2028 -
Matteo Ruggeri Middlesbrough Aktiv 156 / 156 40% 1 07.04.2028 -
Fran García Betis Aktiv 150 / 158 40% 1 06.04.2028 -
Zeki Amdouni Luton Town Aktiv 132 / 129 40% 1 06.04.2028 -
Hugo Duro Valencia Aktiv 154 / 153 40% 1 05.04.2028 -
Roberto Fernández Braga Aktiv 151 / 144 40% 1 04.04.2028 -
Vinícius Júnior Paris Saint-Germain Aktiv 174 / 187 40% 1 04.04.2028 -
Pau Víctor Braga Aktiv 155 / 135 40% 3 03.04.2028 -
Dango Ouattara Leicester City Aktiv 145 / 158 40% 3 02.04.2028 -
Chemsdine Talbi Sunderland Aktiv 146 / 152 40% 2 01.04.2028 -
Mohamed-Ali Cho Hull City Aktiv 149 / 142 40% 3 31.03.2028 -
Ismaïla Sarr Crystal Palace Aktiv 159 / 160 40% 3 30.03.2028 -
Iván Romero Levante Aktiv 141 / 133 40% 4 30.03.2028 -
Ez Abde Betis Aktiv 166 / 147 40% 1 30.03.2028 -
Nordi Mukiele Sunderland Aktiv 154 / 139 40% 5 28.03.2028 -
Benjamín Rollheiser Santos Aktiv 133 / 124 40% 2 28.03.2028 -
Yaser Asprilla Girona Aktiv 151 / 157 40% 2 28.03.2028 -
Arnau Martínez Valencia Aktiv 153 / 142 40% 1 28.03.2028 -
Camilo Durán Chaves Aktiv 137 / 125 40% 1 26.03.2028 -
Samuel Edozie Southampton Aktiv 134 / 133 40% 1 26.03.2028 -
Marcus Tavernier Bournemouth Aktiv 147 / 141 40% 1 25.03.2028 -
Shavy Babicka Crvena Zvezda Aktiv 119 / 114 40% 1 21.03.2028 -
Musa Barrow ES Setif Aktiv 129 / 137 40% 2 20.03.2028 -
Morgan Gibbs-White Nottingham Forest Aktiv 167 / 165 40% 1 20.03.2028 -
Pablo Torre Mallorca Aktiv 146 / 146 40% 1 18.03.2028 -
Vitaly Janelt Derby County Aktiv 154 / 144 40% 1 18.03.2028 -
Christian Kouamé Atlético Mineiro Aktiv 142 / 140 40% 2 17.03.2028 -
Hákon Arnar Haraldsson LOSC Lille Aktiv 157 / 151 40% 1 17.03.2028 -
Malick Fofana Sunderland Aktiv 149 / 145 40% 1 17.03.2028 -
Jackson Muleka Konyaspor Aktiv 141 / 128 40% 2 14.03.2028 -
Orkun Kökçü AZ Aktiv 157 / 163 40% 1 14.03.2028 -
Jaden Philogene Wolverhampton Aktiv 142 / 147 40% 1 11.03.2028 -
Fábio Carvalho Brentford Aktiv 150 / 151 40% 1 10.03.2028 -
Brennan Johnson Middlesbrough Aktiv 155 / 141 40% 1 08.03.2028 -
Yeremy Pino Crystal Palace Aktiv 153 / 158 40% 1 08.03.2028 -
Mikel Oyarzábal Real Sociedad Aktiv 166 / 165 40% 1 08.03.2028 -
Mikkel Damsgaard Brentford Aktiv 145 / 160 40% 1 07.03.2028 -
Aral Şimşir Porto Aktiv 131 / 137 40% 2 04.03.2028 -
Tyrhys Dolan Espanyol Aktiv 137 / 147 40% 1 04.03.2028 -
Cheikh Sabaly Vancouver Whitecaps Aktiv 123 / 141 40% 1 01.03.2028 -
Ben Gannon Doak Charlton Athletic Aktiv 149 / 143 40% 1 01.03.2028 -
Amine Harit Olympique de Marseille Aktiv 134 / 126 40% 2 29.02.2028 -
Abel Ruiz Girona Aktiv 150 / 143 40% 1 29.02.2028 -
Marcelo Allende Mamelodi Sundowns Aktiv 133 / 132 40% 1 27.02.2028 -
Salih Özcan Besiktas Aktiv 136 / 146 40% 2 26.02.2028 -
Nuno Moreira Vasco da Gama Aktiv 119 / 138 40% 3 26.02.2028 -
Bryan Gil Girona Aktiv 157 / 145 40% 1 25.02.2028 -
Pablo Solari Akhmat Grozny Aktiv 143 / 122 40% 1 25.02.2028 -
Victor Lind Hammarby Aktiv 144 / 127 40% 2 24.02.2028 -
Maurício Palmeiras Aktiv 148 / 120 40% 3 23.02.2028 -
Jhon Arias Palmeiras Aktiv 159 / 129 40% 2 23.02.2028 -
Pedro de la Vega Columbus Crew Aktiv 134 / 150 40% 1 21.02.2028 -
Iván Angulo Orlando City Aktiv 139 / 126 40% 1 21.02.2028 -
Martín Ojeda Orlando City Aktiv 127 / 129 40% 1 12.02.2028 -
Dor Turgeman Rubin Aktiv 136 / 122 40% 1 12.02.2028 -
Désiré Doué Stade Brestois Aktiv 167 / 170 40% 2 08.02.2028 -
Gabriel Pec Cruzeiro Aktiv 149 / 126 40% 1 08.02.2028 -
Allan Saint-Maximin Charlotte Football Club Aktiv 152 / 129 40% 1 07.02.2028 -
Archie Gray Southampton Aktiv 148 / 151 40% 3 24.01.2028 -
Josh Nichols Oldham Athletic Verhandlung 120 / 124 40% 3 24.01.2028 -
Giovanni Leoni Lincoln City Aktiv 130 / 144 40% 3 17.01.2028 -
Ali Yavuz Kol Kasimpasa Aktiv 125 / 117 58% 1 17.01.2028 Befürworten
Mao Hosoya Santos Verhandlung 134 / 135 67% 1 01.01.2028 Befürworten
Alex Luna Instituto Aktiv 125 / 128 40% 1 31.12.2027 -
Fodé Sylla Sion Aktiv 129 / 135 40% 1 28.11.2027 -
Nicolas Sport Recife Aktiv 105 / 105 40% 1 28.11.2027 -
Azizbek To'lqinbekov Bunyodkor Aktiv 107 / 99 40% 2 26.11.2027 -
Josh King Newcastle United Aktiv 149 / 150 40% 3 25.11.2027 -
Matias Siltanen Malmo FF Aktiv 127 / 133 40% 2 25.11.2027 -
Hosea Michael Remo Stars Aktiv 82 / 87 40% 2 24.11.2027 -
Felipe Faúndez O'Higgins Aktiv 116 / 101 40% 2 24.11.2027 -
Esquerdinha Notts County Aktiv 122 / 128 40% 4 23.11.2027 -
Diego Vargas Universidad de Concepcion Aktiv 84 / 112 40% 3 22.11.2027 -
Josh Acheampong Everton Aktiv 143 / 149 40% 3 22.11.2027 -
Jonny Shore New York City Aktiv 115 / 91 40% 2 20.11.2027 -
Chris Rigg Sunderland Aktiv 137 / 138 40% 2 19.11.2027 -
Caleb Yirenkyi Coventry City Aktiv 142 / 156 40% 1 17.11.2027 -
Joel Ezra Enyimba Aktiv 78 / 107 40% 2 16.11.2027 -
Agustín De la Cuesta Racing Aktiv 112 / 126 40% 4 16.11.2027 -
Pedro Soma San Diego Football Club Aktiv 96 / 125 40% 4 12.11.2027 -
Thulani Manyama SuperSport United Aktiv 104 / 105 40% 1 12.11.2027 -
Adrian Skogmar Malmo FF Aktiv 99 / 128 40% 1 10.11.2027 -
Vinícius Lira São Paulo Aktiv 115 / 126 40% 1 10.11.2027 -
Sebastián Ramírez Aguilas Doradas Aktiv 99 / 126 40% 2 08.11.2027 -
Jon Esenga IF Elfsborg Aktiv 87 / 112 40% 1 08.11.2027 -
Nahuel Leivas Montevideo City Torque Aktiv 111 / 102 40% 2 02.11.2027 -
Ollie Scarles West Ham United Aktiv 125 / 147 40% 3 02.11.2027 -
Gideon Manaseh Ikorodu City Aktiv 86 / 87 40% 2 01.11.2027 -
Olaniyi Saheed Kwara United Aktiv 89 / 106 40% 2 01.11.2027 -
Santiago Murillo Alianza Petrolera Aktiv 142 / 121 40% 1 30.10.2027 -
Daniel Idoko Ikorodu City Aktiv 92 / 102 40% 3 29.10.2027 -
Oscar Steinke Brånby Hammarby Aktiv 93 / 114 40% 1 19.10.2027 -
Tobias Moi Lillestrom Aktiv 92 / 109 40% 1 17.10.2027 -
Colin Guske Orlando City Aktiv 104 / 91 40% 2 16.10.2027 -
Lucas Høgsberg RC Strasbourg Aktiv 135 / 151 40% 1 09.10.2027 -
Yury Oyarzo Racing Aktiv 75 / 104 40% 1 09.10.2027 -
Victor Hernandez Santa Fe Aktiv 107 / 123 40% 1 06.10.2027 -
Alejandro Leiva Patronato Aktiv 98 / 95 40% 1 26.08.2027 -
Federico Matarán Giana Erminio Aktiv 105 / 103 40% 1 16.08.2027 -
Mattia Puzone Siracusa Aktiv 97 / 101 40% 1 11.08.2027 -
Matthew Targett Hull City Aktiv 126 / 129 40% 1 06.07.2027 -
Alphadjo Cissé Lecce Aktiv 129 / 133 40% 1 03.06.2027 -
Riley Owen Stevenage Aktiv 100 / 115 40% 1 03.06.2027 -
Salvador Blopá Sporting CP Aktiv 107 / 133 40% 1 02.06.2027 -
Oliver Dovin Coventry City Aktiv 136 / 140 40% 7 01.06.2027 -
Sławomir Abramowicz Jagiellonia Aktiv 129 / 145 40% 4 01.06.2027 -
Rocco Ríos Novo Sivasspor Aktiv 114 / 115 40% 6 28.05.2027 -
Pascal Loretz Luzern Aktiv 127 / 129 40% 3 28.05.2027 -
Ángel González Libertad Aktiv 120 / 123 40% 2 26.05.2027 -
James Trafford Leeds United Aktiv 153 / 153 40% 3 23.05.2027 -
Josh Keeley Luton Town Aktiv 120 / 125 40% 4 23.05.2027 -
Filip Marschall Stevenage Aktiv 110 / 107 40% 1 17.05.2027 -
Francesco D'Alterio Ternana Aktiv 100 / 116 40% 2 14.05.2027 -
William Rovida Pro Patria Aktiv 110 / 98 40% 1 14.05.2027 -
Marvin Keller Chelsea Aktiv 148 / 144 40% 3 10.05.2027 -
Ivan Pakholiuk Kolos Aktiv 106 / 134 40% 2 08.05.2027 -
Franko Kolić Istra 1961 Aktiv 99 / 96 40% 4 06.05.2027 -
Cesare Galeotti Trapani Aktiv 107 / 106 40% 1 05.05.2027 -
Emre Bilgin Giresunspor Aktiv 113 / 111 40% 2 01.05.2027 -
Elia Boseggia Novara Aktiv 114 / 107 40% 4 30.04.2027 -
Vladimir Nazarov Pakhtakor Aktiv 96 / 98 40% 1 30.04.2027 -
Zion Suzuki Aston Villa Aktiv 141 / 146 40% 2 26.04.2027 -
Radek Vítek Middlesbrough Aktiv 138 / 133 40% 4 23.04.2027 -
Szymon Weirauch Lechia Aktiv 113 / 124 40% 1 19.04.2027 -
Luka Baš Koper Aktiv 119 / 116 40% 3 18.04.2027 -
Sergio Barlocco Trento Aktiv 113 / 105 40% 3 17.04.2027 -
Leandro Brey Boca Juniors Aktiv 116 / 140 40% 2 12.04.2027 -
Bruno Antúnez Boston River Aktiv 129 / 106 40% 1 11.04.2027 -
Melker Ellborg Sunderland Aktiv 121 / 119 40% 4 08.04.2027 -
Matteo Rizzo Cosenza Aktiv 115 / 103 40% 1 31.03.2027 -
Mate Modric Zadar Aktiv 94 / 97 40% 2 29.03.2027 -
Shahriar Rezaeian Siah Jamegan Aktiv 94 / 119 40% 1 25.03.2027 -
Federico Losas Chacarita Juniors Aktiv 102 / 135 40% 1 15.03.2027 -
Heorhii Yermakov Metalist Aktiv 130 / 114 40% 1 08.03.2027 -
Deniz Ertaş Konyaspor Aktiv 132 / 113 40% 1 06.03.2027 -
Strahinja Manojlović Radnicki Nis Aktiv 99 / 125 40% 1 03.03.2027 -
Mohammad Hosseini Malavan Aktiv 127 / 120 40% 1 29.01.2027 -
Mevran Ablak Angusht Aktiv 67 / 74 40% 1 27.01.2027 -
Sampson Dweh Mallorca Verhandlung 133 / 134 66% 1 01.01.2027 Befürworten
Luiz Henrique AS Roma Verloren 142 / 143 68% 1 01.01.2027 Befürworten
Enis Bardhi Konyaspor Aktiv 132 / 112 58% 1 01.01.2027 -
Mads Hermansen West Ham United Aktiv 137 / 149 40% 1 01.01.2027 -
João Félix Dinamo Moscow Aktiv 171 / 146 40% 1 31.12.2026 -
Nathan Collins Brentford Aktiv 137 / 158 40% 1 29.12.2026 -
Gustavo Hamer Sheffield United Aktiv 143 / 137 40% 1 28.12.2026 -
Quinten Timber Crystal Palace Aktiv 147 / 159 40% 2 27.12.2026 -
Dennis Cirkin Queens Park Rangers Aktiv 135 / 132 40% 1 27.12.2026 -
Dara O'Shea Ipswich Town Aktiv 138 / 124 40% 2 25.12.2026 -
Jacob Greaves Ipswich Town Aktiv 143 / 128 40% 1 23.12.2026 -
Lewis O'Brien Wrexham Aktiv 115 / 137 40% 1 22.12.2026 -
Tomáš Souček West Ham United Aktiv 136 / 131 40% 1 22.12.2026 -
Reinildo Sunderland Aktiv 138 / 141 40% 3 21.12.2026 -
James Garner Everton Aktiv 156 / 137 40% 1 21.12.2026 -
Lucas Torreira Galatasaray Aktiv 156 / 146 40% 2 20.12.2026 -
Igor Burnley Aktiv 134 / 135 40% 1 20.12.2026 -
Max Bird Birmingham Aktiv 135 / 137 40% 1 18.12.2026 -
Alex Scott Bournemouth Aktiv 146 / 156 40% 1 18.12.2026 -
Gabriel Sara Galatasaray Aktiv 144 / 152 40% 3 17.12.2026 -
Wilfried Singo Galatasaray Aktiv 146 / 144 40% 2 17.12.2026 -
Milan Škriniar Fenerbahce Aktiv 152 / 163 40% 3 16.12.2026 -
Aaron Hickey Brentford Aktiv 135 / 137 40% 1 14.12.2026 -
Brooke Norton-Cuffy Hull City Aktiv 137 / 139 40% 1 14.12.2026 -
Emmanuel Agbadou Besiktas Aktiv 142 / 146 40% 1 12.12.2026 -
Harry Clarke Preston Aktiv 121 / 136 40% 1 10.12.2026 -
Welington Southampton Aktiv 138 / 124 40% 1 09.12.2026 -
Yehor Yarmoliuk Brentford Aktiv 150 / 140 40% 1 03.12.2026 -
Max Johnston Derby County Aktiv 132 / 133 40% 2 02.12.2026 -
Florentino Luís Ipswich Town Aktiv 150 / 147 40% 2 30.11.2026 -
Toby Collyer West Bromwich Albion Aktiv 134 / 142 40% 1 30.11.2026 -
Jordan Lotomba Bloemfontein Celtic Aktiv 140 / 137 40% 1 29.11.2026 -
Noah Sadiki Sunderland Aktiv 136 / 141 40% 1 27.11.2026 -
Pedro Porro Tottenham Aktiv 154 / 141 40% 2 20.11.2026 -
Shea Charles Southampton Aktiv 131 / 124 40% 1 20.11.2026 -
André Wolverhampton Aktiv 138 / 150 40% 1 17.11.2026 -
Mattéo Guendouzi Fenerbahce Aktiv 153 / 154 40% 3 15.11.2026 -
Leon Goretzka Aston Villa Aktiv 160 / 144 40% 1 14.11.2026 -
Tijjani Reijnders Al-Qadisiyah Aktiv 158 / 169 40% 3 11.11.2026 -
Ousmane Diomande Nottingham Forest Aktiv 159 / 147 40% 1 10.11.2026 -
Paik Seung-Ho Birmingham Aktiv 122 / 128 40% 1 09.11.2026 -
Tariq Lamptey Queens Park Rangers Aktiv 134 / 138 40% 1 09.11.2026 -
Hidemasa Morita Hull City Aktiv 141 / 153 40% 1 08.11.2026 -
Jarrad Branthwaite Everton Aktiv 161 / 158 40% 1 07.11.2026 -
Joe Gomez Liverpool Aktiv 155 / 138 40% 1 07.11.2026 -
Maestro Alanyaspor Aktiv 125 / 132 40% 1 02.11.2026 -
Nicolás Romero Minnesota United FC Aktiv 115 / 142 40% 1 24.10.2026 -
Agustín Bouzat Houston Dynamo Aktiv 128 / 112 40% 2 23.10.2026 -
Davinson Sánchez Galatasaray Aktiv 159 / 140 40% 2 23.10.2026 -
Nathan Aké Fenerbahce Aktiv 153 / 142 40% 4 22.10.2026 -
Facundo Miño Deportivo Riestra Aktiv 105 / 104 40% 1 21.10.2026 -
Gustavo Mantuan Zenit Aktiv 116 / 140 40% 1 21.10.2026 -
Morgan Billiat SuperSport United Aktiv 109 / 126 40% 1 16.10.2026 -
Marcel Hartel St. Louis CITY SC Aktiv 115 / 138 40% 1 14.10.2026 -
Ferland Mendy Real Madrid Aktiv 155 / 151 40% 1 13.10.2026 -
Óscar Valentín FC Copenhagen Aktiv 130 / 126 40% 1 09.10.2026 -
Japhet Sery Larsen Philadelphia Union Aktiv 140 / 141 40% 1 08.10.2026 -
Marcelo Saracchi Houston Dynamo Aktiv 123 / 123 40% 1 09.09.2026 -
Bünyamin Balcı Antalyaspor Aktiv 123 / 109 55% 1 31.08.2026 -
Rodrigo Morínigo Debrecen Aktiv 120 / 123 40% 1 24.08.2026 -